createdAt,value
2022-08-25T00:02:59.538Z,4.0504
2022-08-25T00:08:12.126Z,4.0504
2022-08-25T00:13:29.021Z,4.0504
2022-08-25T00:18:44.103Z,4.0504
2022-08-25T00:23:56.214Z,4.0455
2022-08-25T00:29:08.591Z,4.0455
2022-08-25T00:34:20.555Z,4.0455
2022-08-25T00:39:32.764Z,4.0455
2022-08-25T00:44:45.683Z,4.0504
2022-08-25T00:49:57.505Z,4.0455
2022-08-25T00:55:09.607Z,4.0455
2022-08-25T01:00:21.782Z,4.0455
2022-08-25T01:05:33.998Z,4.0455
2022-08-25T01:10:46.206Z,4.0406
2022-08-25T01:15:58.880Z,4.0406
2022-08-25T01:21:10.989Z,4.0406
2022-08-25T01:26:31.903Z,4.0406
2022-08-25T01:31:47.937Z,4.0406
2022-08-25T01:36:59.994Z,4.0406
2022-08-25T01:42:12.198Z,4.0309
2022-08-25T01:47:24.473Z,4.0309
2022-08-25T01:52:36.319Z,4.0309
2022-08-25T01:57:48.299Z,4.0309
2022-08-25T02:03:18.788Z,4.0309
2022-08-25T02:08:27.794Z,4.0309
2022-08-25T02:13:39.867Z,4.0309
2022-08-25T02:18:52.205Z,4.0309
2022-08-25T02:24:04.497Z,4.0309
2022-08-25T02:29:16.333Z,4.0406
2022-08-25T02:34:28.540Z,4.0309
2022-08-25T02:39:40.551Z,4.0406
2022-08-25T02:44:52.655Z,4.026
2022-08-25T02:50:04.699Z,4.0406
2022-08-25T02:55:16.978Z,4.0309
2022-08-25T03:00:29.207Z,4.0309
2022-08-25T03:05:41.267Z,4.026
2022-08-25T03:10:53.418Z,4.026
2022-08-25T03:16:13.251Z,4.026
2022-08-25T03:21:45.002Z,4.026
2022-08-25T03:26:53.803Z,4.026
2022-08-25T03:32:06.167Z,4.026
2022-08-25T03:37:18.177Z,4.026
2022-08-25T03:42:30.235Z,4.026
2022-08-25T03:47:42.322Z,4.026
2022-08-25T03:52:54.409Z,4.026
2022-08-25T03:58:07.428Z,4.0211
2022-08-25T04:03:19.456Z,4.0211
2022-08-25T04:08:31.548Z,4.0211
2022-08-25T04:13:43.999Z,4.0211
2022-08-25T04:18:56.256Z,4.0211
2022-08-25T04:24:08.457Z,4.0211
2022-08-25T04:29:24.886Z,4.0211
2022-08-25T04:34:37.651Z,4.0211
2022-08-25T04:39:49.913Z,4.0211
2022-08-25T04:45:01.915Z,4.0309
2022-08-25T04:50:13.903Z,4.0211
2022-08-25T04:55:26.260Z,4.0211
2022-08-25T05:00:39.412Z,4.0211
2022-08-25T05:05:51.236Z,4.0162
2022-08-25T05:11:06.097Z,4.0162
2022-08-25T05:16:18.330Z,4.0211
2022-08-25T05:21:30.293Z,4.0162
2022-08-25T05:26:42.465Z,4.0162
2022-08-25T05:31:55.180Z,4.0162
2022-08-25T05:37:13.046Z,4.0162
2022-08-25T05:42:29.429Z,4.0162
2022-08-25T05:47:41.749Z,4.0162
2022-08-25T05:52:53.918Z,4.0162
2022-08-25T05:58:10.776Z,4.0162
2022-08-25T06:03:26.161Z,4.0162
2022-08-25T06:08:41.084Z,4.0162
2022-08-25T06:13:52.410Z,4.0162
2022-08-25T06:19:04.708Z,4.0162
2022-08-25T06:24:17.114Z,4.0162
2022-08-25T06:29:29.927Z,4.0162
2022-08-25T06:34:42.239Z,4.0162
2022-08-25T06:39:54.722Z,4.0162
2022-08-25T06:45:07.053Z,4.0162
2022-08-25T06:50:19.602Z,4.0162
2022-08-25T06:55:32.033Z,4.0162
2022-08-25T07:00:44.727Z,4.0162
2022-08-25T07:05:57.013Z,4.0114
2022-08-25T07:11:18.353Z,4.0162
2022-08-25T07:16:32.324Z,4.0162
2022-08-25T07:21:49.534Z,4.0114
2022-08-25T07:27:05.502Z,4.0114
2022-08-25T07:32:18.484Z,4.0114
2022-08-25T07:37:50.683Z,4.0114
2022-08-25T07:43:01.671Z,4.0114
2022-08-25T07:48:18.538Z,4.0114
2022-08-25T07:53:34.247Z,4.0114
2022-08-25T07:58:46.680Z,4.0114
2022-08-25T08:04:04.766Z,4.0114
2022-08-25T08:09:19.571Z,4.0114
2022-08-25T08:14:32.276Z,4.0114
2022-08-25T08:19:46.677Z,4.0114
2022-08-25T08:24:58.662Z,4.0114
2022-08-25T08:30:11.066Z,4.0114
2022-08-25T08:35:23.510Z,4.0162
2022-08-25T08:40:37.070Z,4.0114
2022-08-25T08:45:50.695Z,4.0114
2022-08-25T08:51:10.524Z,4.0114
2022-08-25T08:56:32.066Z,4.0114
2022-08-25T09:01:54.626Z,4.0114
2022-08-25T09:07:10.696Z,4.0114
2022-08-25T09:12:22.717Z,4.0114
2022-08-25T09:17:35.351Z,4.0114
2022-08-25T09:22:48.781Z,4.0114
2022-08-25T09:28:01.301Z,4.0114
2022-08-25T09:33:22.394Z,4.0065
2022-08-25T09:38:35.090Z,4.0114
2022-08-25T09:43:51.770Z,4.0065
2022-08-25T09:49:05.172Z,4.0065
2022-08-25T09:54:17.234Z,4.0114
2022-08-25T09:59:36.804Z,4.0114
2022-08-25T10:04:52.847Z,4.0114
2022-08-25T10:10:05.505Z,4.0114
2022-08-25T10:15:31.793Z,4.0114
2022-08-25T10:20:46.671Z,4.0065
2022-08-25T10:26:06.071Z,4.0065
2022-08-25T10:31:23.860Z,4.0065
2022-08-25T10:36:37.774Z,4.0065
2022-08-25T10:41:54.712Z,4.0065
2022-08-25T10:47:09.496Z,4.0114
2022-08-25T10:52:22.169Z,4.0211
2022-08-25T10:57:37.636Z,4.0065
2022-08-25T11:02:50.138Z,4.0065
2022-08-25T11:08:02.414Z,4.0114
2022-08-25T11:13:14.854Z,4.0114
2022-08-25T11:18:27.623Z,4.0162
2022-08-25T11:23:41.004Z,4.026
2022-08-25T11:28:54.432Z,4.0455
2022-08-25T11:34:10.883Z,4.0504
2022-08-25T11:39:34.953Z,4.0553
2022-08-25T11:44:55.794Z,4.0455
2022-08-25T11:55:23.847Z,4.0748
2022-08-25T12:05:51.168Z,4.0797
2022-08-25T12:11:12.410Z,4.0846
2022-08-25T12:37:07.409Z,4.1236
2022-08-25T12:42:27.397Z,4.1334
2022-08-25T12:47:45.701Z,4.1334
2022-08-25T12:52:58.156Z,4.148
2022-08-25T12:58:11.427Z,4.1626
2022-08-25T13:18:55.404Z,4.148
2022-08-25T13:24:07.581Z,4.1626
2022-08-25T13:34:36.513Z,4.1724
2022-08-25T13:40:04.772Z,4.148
2022-08-25T13:55:52.846Z,4.1431
2022-08-25T14:16:35.503Z,4.1236
2022-08-25T14:21:57.700Z,4.1236
2022-08-25T14:42:42.454Z,4.1236
2022-08-25T14:47:54.899Z,4.1138
2022-08-25T15:03:32.166Z,4.1285
2022-08-25T15:08:43.815Z,4.1334
2022-08-25T15:19:08.246Z,4.1626
2022-08-25T15:29:31.083Z,4.1626
2022-08-25T15:34:44.012Z,4.1675
2022-08-25T15:39:57.552Z,4.1724
2022-08-25T15:45:10.039Z,4.1724
2022-08-25T15:50:27.104Z,4.187
2022-08-25T16:00:59.718Z,4.1773
2022-08-25T16:06:13.461Z,4.1724
2022-08-25T16:11:40.764Z,4.1675
2022-08-25T16:17:00.521Z,4.1578
2022-08-25T16:22:16.241Z,4.1578
2022-08-25T16:32:40.681Z,4.1431
2022-08-25T16:53:27.302Z,4.1334
2022-08-25T16:58:41.366Z,4.1334
2022-08-25T17:24:35.431Z,4.1334
2022-08-25T17:29:48.272Z,4.1236
2022-08-25T17:35:00.411Z,4.1138
2022-08-25T17:40:16.489Z,4.1138
2022-08-25T17:45:31.333Z,4.1138
2022-08-25T17:50:43.139Z,4.1138
2022-08-25T18:01:05.931Z,4.109
2022-08-25T18:06:20.501Z,4.1041
2022-08-25T18:11:33.179Z,4.1138
2022-08-25T18:16:45.444Z,4.1041
2022-08-25T18:21:58.255Z,4.1041
2022-08-25T18:27:11.622Z,4.0992
2022-08-25T18:32:29.931Z,4.0992
2022-08-25T18:37:45.990Z,4.0894
2022-08-25T18:43:00.281Z,4.0894
2022-08-25T18:48:12.551Z,4.0894
2022-08-25T18:54:01.408Z,4.0846
2022-08-25T18:59:09.059Z,4.0797
2022-08-25T19:04:32.398Z,4.0894
2022-08-25T19:09:45.047Z,4.0797
2022-08-25T19:14:57.245Z,4.0797
2022-08-25T19:20:12.397Z,4.0797
2022-08-25T19:25:24.485Z,4.0797
2022-08-25T19:30:36.960Z,4.0748
2022-08-25T19:35:49.675Z,4.0748
2022-08-25T19:41:02.337Z,4.0748
2022-08-25T19:46:20.729Z,4.0748
2022-08-25T19:51:33.975Z,4.0699
2022-08-25T19:56:57.085Z,4.0699
2022-08-25T20:02:11.144Z,4.0699
2022-08-25T20:07:25.159Z,4.0699
2022-08-25T20:12:39.217Z,4.065
2022-08-25T20:17:57.589Z,4.065
2022-08-25T20:23:11.269Z,4.065
2022-08-25T20:28:23.828Z,4.0748
2022-08-25T20:33:36.622Z,4.065
2022-08-25T20:38:50.781Z,4.065
2022-08-25T20:44:02.654Z,4.0699
2022-08-25T20:49:15.684Z,4.0602
2022-08-25T20:54:27.715Z,4.0602
2022-08-25T20:59:40.255Z,4.0602
2022-08-25T21:04:53.290Z,4.0602
2022-08-25T21:10:05.245Z,4.0602
2022-08-25T21:15:19.325Z,4.0602
2022-08-25T21:20:31.203Z,4.0553
2022-08-25T21:25:43.954Z,4.0602
2022-08-25T21:30:57.841Z,4.0553
2022-08-25T21:36:09.636Z,4.0553
2022-08-25T21:41:22.414Z,4.0553
2022-08-25T21:46:35.063Z,4.0553
2022-08-25T21:51:47.097Z,4.0553
2022-08-25T21:56:59.838Z,4.0553
2022-08-25T22:02:12.456Z,4.0602
2022-08-25T22:07:25.936Z,4.0553
2022-08-25T22:12:38.018Z,4.0504
2022-08-25T22:17:51.099Z,4.0553
2022-08-25T22:23:03.490Z,4.0504
2022-08-25T22:28:16.118Z,4.0504
2022-08-25T22:33:30.909Z,4.0504
2022-08-25T22:38:42.196Z,4.0504
2022-08-25T22:43:54.413Z,4.0504
2022-08-25T22:49:09.951Z,4.0504
2022-08-25T22:54:21.157Z,4.0455
2022-08-25T22:59:34.298Z,4.0455
2022-08-25T23:04:46.552Z,4.0455
2022-08-25T23:10:10.450Z,4.0455
2022-08-25T23:15:20.311Z,4.0455
2022-08-25T23:20:33.863Z,4.0455
2022-08-25T23:25:46.159Z,4.0504
2022-08-25T23:31:00.621Z,4.0455
2022-08-25T23:36:12.220Z,4.0455
2022-08-25T23:41:24.792Z,4.0455
2022-08-25T23:46:36.812Z,4.0406
2022-08-25T23:51:51.910Z,4.0406
2022-08-25T23:57:09.470Z,4.0406
